Aeroporto :
LOGIN :

Iscrizione | Disclaimer

   EN    FR    IT 

 










Sommario :    VFR   VFR Marginale   IFR   IFR Intensivo   IFR Molto Intensivo
Visibilità : 
Base nubi : 
>= 8 km
>= 3000ft
5 / 8 km
1000 / 3000 ft
1500m / 5 km
500 / 1000 ft
800 / 1500m
200 / 500 ft
< 800m
< 200 ft
Simboli :   Temporali  Nebbia  Neve Forte  Precipitazioni Forti  Vento > 20 kt
SIGMETs :   Varie  Temporali  Ghiacco  Turbolenza  Onda orograficha  Ceneri Vulcaniche






- Altitudine del aeroporto : 545 ft
- Codice IATA : PZY


LZPP - Piešťany

ULTIMO METAR :
  • 250730Z 23003KT 170V330 CAVOK 23/14 Q1017

METARs OBSOLETI :
  • 250700Z VRB02KT CAVOK 23/14 Q1017
  • 250630Z 31003KT 250V030 CAVOK 22/14 Q1017
  • 250600Z 35005KT CAVOK 20/14 Q1017
  • 250530Z 36006KT CAVOK 19/14 Q1017
  • 250500Z 36006KT CAVOK 18/13 Q1017
  • 250430Z 01005KT CAVOK 17/13 Q1017
  • 250400Z 02006KT CAVOK 15/13 Q1017
  • 250330Z 01006KT CAVOK 15/12 Q1017
  • 250300Z 01007KT CAVOK 15/12 Q1017

TAF TAF LZPP
Valido dal 25 a 06 ore il 25 a 15 ore UTC


250546Z 2506/2515 02007KT CAVOK
BECMG 2507/2509 VRB02KT



MetMap, La meteo Aeronautica in un colpo d'occhio ! - Copyright ORBIFLY Dicembre 2007 - Disclaimer

ORBIFLY MET'MAP TEAM :

Programmazione e sviluppo : Alexandra Zaïnal
Concezione : Baudouin d'Aumeries
Supporto tecnico e logistico : Manuel Goepfert
Aiuto : Marc-Olivier Méhu
Aiuto per la traduzione : Arnaldo La Scala




FONTI E CREDITI :

   NOAA